createdAt,value
2022-10-19T00:03:37.839Z,16.02
2022-10-19T00:08:41.109Z,17.66
2022-10-19T00:13:43.941Z,16.30
2022-10-19T00:18:47.224Z,15.71
2022-10-19T00:23:50.196Z,17.65
2022-10-19T00:28:56.613Z,17.06
2022-10-19T00:33:59.522Z,15.06
2022-10-19T00:39:04.766Z,15.50
2022-10-19T00:44:30.198Z,17.70
2022-10-19T00:49:37.680Z,16.67
2022-10-19T00:54:44.094Z,15.55
2022-10-19T00:59:47.486Z,17.63
2022-10-19T01:04:52.186Z,17.78
2022-10-19T01:09:55.882Z,15.66
2022-10-19T01:15:13.770Z,16.74
2022-10-19T01:20:31.597Z,18.24
2022-10-19T01:25:37.161Z,16.43
2022-10-19T01:31:32.339Z,15.84
2022-10-19T01:36:47.013Z,18.16
2022-10-19T01:41:56.616Z,17.87
2022-10-19T01:47:06.177Z,15.54
2022-10-19T01:52:12.742Z,15.68
2022-10-19T01:57:19.254Z,17.79
2022-10-19T02:02:22.259Z,16.92
2022-10-19T02:07:25.545Z,15.89
2022-10-19T02:12:31.717Z,17.88
2022-10-19T02:17:38.113Z,17.38
2022-10-19T02:22:40.922Z,16.15
2022-10-19T02:27:43.945Z,17.70
2022-10-19T02:32:46.642Z,16.48
2022-10-19T02:37:49.648Z,16.43
2022-10-19T02:42:58.358Z,17.69
2022-10-19T02:48:06.183Z,15.94
2022-10-19T02:53:08.803Z,17.09
2022-10-19T02:58:11.502Z,16.32
2022-10-19T03:03:14.105Z,16.48
2022-10-19T03:08:16.728Z,17.31
2022-10-19T03:13:19.324Z,16.01
2022-10-19T03:18:21.990Z,16.56
2022-10-19T03:23:24.641Z,17.17
2022-10-19T03:28:28.129Z,15.04
2022-10-19T03:33:30.890Z,15.96
2022-10-19T03:38:33.494Z,17.76
2022-10-19T03:43:36.199Z,17.45
2022-10-19T03:48:38.896Z,15.57
2022-10-19T03:53:43.347Z,17.09
2022-10-19T03:58:48.165Z,17.15
2022-10-19T04:03:58.918Z,15.63
2022-10-19T04:09:02.781Z,17.46
2022-10-19T04:14:05.847Z,17.36
2022-10-19T04:19:09.405Z,15.17
2022-10-19T04:24:14.573Z,15.18
2022-10-19T04:29:23.689Z,17.41
2022-10-19T04:34:28.996Z,17.87
2022-10-19T04:39:31.610Z,15.80
2022-10-19T04:44:34.238Z,16.31
2022-10-19T04:49:36.879Z,17.57
2022-10-19T04:54:39.495Z,15.77
2022-10-19T04:59:42.176Z,16.84
2022-10-19T05:04:45.279Z,16.92
2022-10-19T05:09:48.034Z,16.10
2022-10-19T05:14:50.914Z,17.14
2022-10-19T05:19:53.584Z,15.30
2022-10-19T05:24:58.199Z,15.17
2022-10-19T05:30:01.233Z,17.28
2022-10-19T05:35:04.369Z,18.31
2022-10-19T05:40:07.741Z,17.58
2022-10-19T05:45:10.919Z,15.43
2022-10-19T05:50:13.669Z,15.50
2022-10-19T05:55:16.366Z,17.82
2022-10-19T06:00:19.241Z,17.84
2022-10-19T06:05:22.769Z,15.66
2022-10-19T06:10:28.442Z,15.60
2022-10-19T06:15:34.229Z,17.93
2022-10-19T06:20:42.020Z,17.74
2022-10-19T06:25:44.866Z,15.79
2022-10-19T06:30:47.499Z,17.47
2022-10-19T06:35:50.334Z,17.84
2022-10-19T06:40:53.047Z,15.78
2022-10-19T06:45:56.171Z,15.91
2022-10-19T06:51:00.683Z,18.30
2022-10-19T06:56:06.272Z,17.85
2022-10-19T07:01:10.464Z,15.77
2022-10-19T07:06:14.566Z,15.86
2022-10-19T07:11:19.894Z,18.20
2022-10-19T07:16:23.195Z,18.08
2022-10-19T07:21:25.938Z,15.84
2022-10-19T07:26:30.654Z,15.98
2022-10-19T07:31:33.579Z,17.98
2022-10-19T07:36:37.274Z,17.85
2022-10-19T07:41:40.008Z,15.66
2022-10-19T07:46:43.292Z,15.72
2022-10-19T07:51:47.014Z,17.92
2022-10-19T07:56:49.660Z,16.51
2022-10-19T08:01:54.420Z,15.53
2022-10-19T08:06:57.102Z,17.29
2022-10-19T08:11:59.823Z,15.96
2022-10-19T08:17:02.836Z,15.98
2022-10-19T08:22:05.851Z,17.03
2022-10-19T08:27:08.629Z,15.57
2022-10-19T08:32:11.468Z,16.35
2022-10-19T08:37:25.932Z,17.58
2022-10-19T08:42:50.982Z,16.07
2022-10-19T08:48:27.722Z,15.19
2022-10-19T08:53:58.288Z,16.70
2022-10-19T08:59:14.116Z,17.78
2022-10-19T09:04:32.712Z,16.27
2022-10-19T09:09:42.881Z,15.41
2022-10-19T09:15:10.516Z,14.88
2022-10-19T09:20:38.640Z,14.87
2022-10-19T09:25:41.644Z,17.27
2022-10-19T09:30:47.934Z,16.06
2022-10-19T09:35:50.933Z,15.20
2022-10-19T09:41:12.477Z,14.86
2022-10-19T09:46:30.738Z,14.74
2022-10-19T09:52:05.804Z,14.61
2022-10-19T09:57:21.089Z,14.08
2022-10-19T10:02:33.697Z,13.52
2022-10-19T10:07:38.881Z,13.18
2022-10-19T10:12:43.025Z,13.02
2022-10-19T10:17:47.683Z,12.99
2022-10-19T10:22:57.509Z,13.33
2022-10-19T10:28:04.438Z,14.32
2022-10-19T10:33:16.015Z,15.58
2022-10-19T10:38:36.186Z,16.66
2022-10-19T10:49:05.875Z,15.37
2022-10-19T10:54:18.843Z,14.42
2022-10-19T10:59:30.373Z,15.62
2022-10-19T11:04:39.357Z,20.39
2022-10-19T11:09:44.517Z,21.19
2022-10-19T11:14:57.778Z,20.54
2022-10-19T11:20:00.481Z,18.75
2022-10-19T11:25:34.478Z,16.95
2022-10-19T11:30:50.765Z,15.63
2022-10-19T11:35:58.689Z,16.39
2022-10-19T11:41:28.387Z,18.77
2022-10-19T11:47:08.791Z,21.05
2022-10-19T11:52:20.873Z,22.01
2022-10-19T11:57:28.203Z,20.74
2022-10-19T12:03:04.036Z,18.46
2022-10-19T12:08:31.831Z,16.35
2022-10-19T12:13:50.477Z,15.01
2022-10-19T12:18:58.297Z,16.20
2022-10-19T12:24:05.180Z,18.55
2022-10-19T12:29:15.814Z,20.40
2022-10-19T12:34:47.580Z,20.81
2022-10-19T12:40:08.779Z,20.52
2022-10-19T12:45:18.411Z,20.23
2022-10-19T12:50:47.064Z,19.96
2022-10-19T12:56:00.921Z,19.28
2022-10-19T13:01:06.401Z,17.75
2022-10-19T13:06:18.472Z,16.30
2022-10-19T13:11:21.807Z,15.08
2022-10-19T13:16:40.904Z,14.14
2022-10-19T13:22:22.728Z,13.68
2022-10-19T13:27:26.916Z,13.59
2022-10-19T13:32:38.219Z,13.70
2022-10-19T13:37:41.213Z,13.79
2022-10-19T13:42:43.974Z,13.61
2022-10-19T13:47:53.311Z,13.48
2022-10-19T13:53:11.215Z,13.24
2022-10-19T13:58:39.614Z,12.85
2022-10-19T14:03:57.669Z,12.52
2022-10-19T14:09:38.582Z,12.29
2022-10-19T14:14:44.301Z,12.26
2022-10-19T14:19:52.342Z,12.15
2022-10-19T14:25:02.451Z,12.03
2022-10-19T14:30:06.829Z,11.92
2022-10-19T14:35:20.486Z,11.84
2022-10-19T14:40:34.061Z,11.65
2022-10-19T14:45:36.661Z,11.56
2022-10-19T14:50:47.467Z,11.39
2022-10-19T14:55:54.891Z,11.10
2022-10-19T15:00:57.672Z,10.84
2022-10-19T15:06:04.060Z,10.64
2022-10-19T15:11:07.909Z,10.43
2022-10-19T15:16:32.312Z,10.22
2022-10-19T15:21:34.900Z,10.06
2022-10-19T15:26:38.219Z,9.92
2022-10-19T15:31:40.853Z,9.78
2022-10-19T15:37:03.576Z,11.37
2022-10-19T15:42:22.401Z,15.04
2022-10-19T15:47:25.369Z,14.95
2022-10-19T15:52:37.074Z,12.82
2022-10-19T15:57:40.253Z,11.58
2022-10-19T16:02:43.638Z,10.84
2022-10-19T16:07:46.690Z,10.30
2022-10-19T16:12:49.588Z,11.38
2022-10-19T16:17:59.268Z,14.69
2022-10-19T16:23:02.073Z,14.94
2022-10-19T16:28:04.818Z,12.85
2022-10-19T16:33:07.433Z,11.58
2022-10-19T16:38:10.030Z,10.79
2022-10-19T16:43:12.625Z,10.24
2022-10-19T16:48:15.257Z,11.25
2022-10-19T16:53:17.838Z,14.49
2022-10-19T16:58:20.428Z,14.16
2022-10-19T17:03:23.073Z,12.32
2022-10-19T17:08:36.697Z,11.34
2022-10-19T17:13:49.088Z,10.65
2022-10-19T17:18:55.833Z,10.17
2022-10-19T17:24:01.727Z,11.35
2022-10-19T17:29:05.719Z,14.46
2022-10-19T17:34:09.699Z,14.86
2022-10-19T17:39:18.956Z,12.90
2022-10-19T17:44:22.217Z,11.71
2022-10-19T17:49:25.117Z,10.93
2022-10-19T17:54:27.891Z,10.36
2022-10-19T17:59:46.685Z,11.41
2022-10-19T18:04:53.395Z,14.56
2022-10-19T18:09:56.083Z,14.81
2022-10-19T18:14:58.782Z,12.73
2022-10-19T18:20:01.480Z,11.43
2022-10-19T18:25:04.458Z,10.60
2022-10-19T18:30:09.266Z,10.00
2022-10-19T18:35:11.947Z,10.94
2022-10-19T18:40:14.617Z,14.01
2022-10-19T18:45:17.259Z,14.38
2022-10-19T18:50:19.896Z,12.42
2022-10-19T18:55:22.651Z,11.22
2022-10-19T19:00:25.609Z,10.44
2022-10-19T19:05:28.300Z,11.31
2022-10-19T19:10:30.893Z,14.32
2022-10-19T19:15:33.543Z,14.54
2022-10-19T19:20:40.471Z,12.44
2022-10-19T19:25:43.105Z,11.14
2022-10-19T19:30:46.100Z,10.35
2022-10-19T19:35:48.916Z,11.26
2022-10-19T19:40:51.559Z,14.42
2022-10-19T19:46:02.038Z,14.26
2022-10-19T19:51:09.431Z,12.17
2022-10-19T19:56:13.233Z,10.97
2022-10-19T20:01:20.499Z,10.19
2022-10-19T20:06:25.799Z,11.07
2022-10-19T20:11:29.546Z,14.11
2022-10-19T20:16:33.450Z,14.21
2022-10-19T20:21:36.260Z,12.06
2022-10-19T20:26:39.137Z,10.79
2022-10-19T20:31:42.013Z,10.64
2022-10-19T20:36:44.611Z,13.61
2022-10-19T20:41:47.218Z,14.27
2022-10-19T20:46:50.136Z,12.19
2022-10-19T20:51:54.242Z,10.88
2022-10-19T20:56:56.822Z,10.33
2022-10-19T21:01:59.528Z,13.25
2022-10-19T21:07:04.530Z,14.20
2022-10-19T21:12:07.137Z,12.03
2022-10-19T21:17:09.827Z,10.69
2022-10-19T21:22:13.963Z,11.24
2022-10-19T21:27:16.552Z,14.00
2022-10-19T21:32:21.119Z,14.22
2022-10-19T21:37:23.894Z,12.25
2022-10-19T21:42:26.496Z,11.10
2022-10-19T21:47:29.111Z,10.36
2022-10-19T21:52:31.921Z,9.77
2022-10-19T21:57:34.879Z,10.86
2022-10-19T22:02:37.909Z,14.02
2022-10-19T22:07:40.599Z,14.30
2022-10-19T22:12:43.297Z,12.27
2022-10-19T22:17:45.997Z,11.04
2022-10-19T22:22:51.453Z,10.87
2022-10-19T22:27:57.334Z,13.83
2022-10-19T22:33:00.031Z,13.69
2022-10-19T22:38:02.728Z,11.59
2022-10-19T22:43:06.816Z,10.31
2022-10-19T22:48:09.768Z,11.29
2022-10-19T22:53:12.771Z,14.13
2022-10-19T22:58:16.050Z,13.58
2022-10-19T23:03:18.781Z,11.62
2022-10-19T23:08:21.368Z,10.43
2022-10-19T23:13:24.354Z,11.18
2022-10-19T23:18:27.159Z,14.10
2022-10-19T23:23:31.069Z,14.35
2022-10-19T23:28:36.269Z,12.11
2022-10-19T23:33:39.751Z,10.69
2022-10-19T23:38:44.573Z,11.37
2022-10-19T23:43:47.728Z,13.65
2022-10-19T23:48:50.362Z,12.35
2022-10-19T23:53:53.548Z,10.56
2022-10-19T23:58:57.032Z,11.23
